Аэропорт: Кемерово. Кемерово

ICAO: UNEE

METAR:
2018/11/21 18:30
UNEE 211830Z 18004MPS 5000 -SN NSC M04/M05 Q1015 R23/891037 NOSIG RMK QFE738
METAR:
2018/11/21 18:21
TAF UNEE 211700Z 2118/2218 18003G08MPS 5000 -SHSN BKN020CB 
      TEMPO 2118/2124 1500 SHSN BKN011CB 
      TEMPO 2200/2212 3100 -SHSN BKN011CB